createdAt,value
2022-10-04T00:01:53.176Z,2.97
2022-10-04T00:04:25.959Z,3.85
2022-10-04T00:06:58.594Z,2.85
2022-10-04T00:09:29.422Z,4.40
2022-10-04T00:11:58.091Z,3.60
2022-10-04T00:14:30.452Z,2.80
2022-10-04T00:19:40.542Z,3.15
2022-10-04T00:22:14.182Z,3.85
2022-10-04T00:25:17.460Z,3.70
2022-10-04T00:28:25.505Z,3.13
2022-10-04T00:31:21.966Z,3.03
2022-10-04T00:33:53.424Z,4.03
2022-10-04T00:36:49.018Z,3.75
2022-10-04T00:39:38.598Z,3.00
2022-10-04T00:42:35.766Z,2.88
2022-10-04T00:45:08.763Z,3.92
2022-10-04T00:48:01.240Z,3.95
2022-10-04T00:50:34.781Z,3.25
2022-10-04T00:53:04.293Z,3.38
2022-10-04T00:55:36.154Z,2.95
2022-10-04T00:58:07.437Z,3.63
2022-10-04T01:00:35.942Z,3.97
2022-10-04T01:03:07.817Z,3.95
2022-10-04T01:05:40.249Z,3.45
2022-10-04T01:10:40.316Z,3.88
2022-10-04T01:13:11.232Z,3.88
2022-10-04T01:15:44.133Z,3.75
2022-10-04T01:18:15.290Z,3.80
2022-10-04T01:20:55.218Z,4.55
2022-10-04T01:23:35.695Z,4.07
2022-10-04T01:26:05.718Z,3.80
2022-10-04T01:28:34.306Z,4.10
2022-10-04T01:31:02.494Z,3.78
2022-10-04T01:33:31.199Z,4.38
2022-10-04T01:35:59.432Z,4.15
2022-10-04T01:38:27.355Z,4.25
2022-10-04T01:41:00.409Z,3.88
2022-10-04T01:43:32.997Z,4.22
2022-10-04T01:46:04.790Z,3.65
2022-10-04T01:48:37.536Z,3.95
2022-10-04T01:51:08.683Z,3.65
2022-10-04T01:53:41.666Z,3.95
2022-10-04T01:56:14.635Z,3.85
2022-10-04T01:58:44.888Z,4.07
2022-10-04T02:01:16.004Z,3.70
2022-10-04T02:03:46.533Z,3.78
2022-10-04T02:06:15.779Z,4.10
2022-10-04T02:08:49.390Z,4.70
2022-10-04T02:11:21.407Z,3.80
2022-10-04T02:13:51.732Z,3.80
2022-10-04T02:16:20.358Z,4.18
2022-10-04T02:18:48.611Z,4.55
2022-10-04T02:21:16.776Z,4.40
2022-10-04T02:23:46.911Z,4.60
2022-10-04T02:26:14.866Z,3.40
2022-10-04T02:28:44.177Z,4.47
2022-10-04T02:31:30.246Z,4.07
2022-10-04T02:33:59.612Z,4.05
2022-10-04T02:36:29.428Z,3.63
2022-10-04T02:39:01.643Z,3.85
2022-10-04T02:41:32.788Z,4.15
2022-10-04T02:44:05.362Z,3.60
2022-10-04T02:46:35.345Z,3.58
2022-10-04T02:49:07.223Z,3.13
2022-10-04T02:51:40.336Z,3.58
2022-10-04T02:54:15.649Z,3.13
2022-10-04T02:56:44.281Z,3.17
2022-10-04T02:59:17.205Z,4.95
2022-10-04T03:01:52.162Z,3.45
2022-10-04T03:04:23.221Z,4.50
2022-10-04T03:06:51.370Z,3.45
2022-10-04T03:09:25.031Z,4.05
2022-10-04T03:11:56.444Z,4.45
2022-10-04T03:14:29.533Z,4.68
2022-10-04T03:17:00.646Z,3.47
2022-10-04T03:19:30.814Z,4.63
2022-10-04T03:22:02.176Z,3.33
2022-10-04T03:24:32.396Z,4.45
2022-10-04T03:27:02.667Z,3.95
2022-10-04T03:29:34.004Z,3.67
2022-10-04T03:32:04.685Z,3.47
2022-10-04T03:34:35.221Z,4.15
2022-10-04T03:37:03.808Z,3.65
2022-10-04T03:39:33.827Z,4.93
2022-10-04T03:42:04.295Z,4.57
2022-10-04T03:44:34.405Z,3.85
2022-10-04T03:47:02.571Z,4.10
2022-10-04T03:49:33.864Z,5.10
2022-10-04T03:52:02.318Z,4.22
2022-10-04T03:54:30.703Z,5.68
2022-10-04T03:56:59.631Z,4.78
2022-10-04T03:59:29.384Z,5.63
2022-10-04T04:02:06.735Z,4.75
2022-10-04T04:04:43.141Z,4.55
2022-10-04T04:07:14.448Z,4.80
2022-10-04T04:09:45.242Z,4.97
2022-10-04T04:12:17.643Z,4.70
2022-10-04T04:17:39.098Z,4.80
2022-10-04T04:20:16.824Z,4.93
2022-10-04T04:22:46.604Z,5.82
2022-10-04T04:25:17.064Z,4.43
2022-10-04T04:27:45.618Z,4.40
2022-10-04T04:30:16.888Z,4.85
2022-10-04T04:32:47.635Z,4.78
2022-10-04T04:35:23.448Z,5.03
2022-10-04T04:38:04.595Z,4.75
2022-10-04T04:40:34.246Z,5.78
2022-10-04T04:43:03.420Z,4.80
2022-10-04T04:45:32.823Z,4.45
2022-10-04T04:48:03.877Z,4.78
2022-10-04T04:50:34.002Z,4.80
2022-10-04T04:53:06.580Z,4.22
2022-10-04T04:56:01.776Z,5.20
2022-10-04T04:58:26.922Z,4.88
2022-10-04T05:00:57.811Z,5.47
2022-10-04T05:03:29.965Z,5.00
2022-10-04T05:06:00.897Z,5.15
2022-10-04T05:08:29.922Z,4.97
2022-10-04T05:11:05.320Z,5.60
2022-10-04T05:13:37.206Z,5.95
2022-10-04T05:16:05.350Z,5.57
2022-10-04T05:18:34.874Z,5.60
2022-10-04T05:21:07.872Z,5.07
2022-10-04T05:23:36.175Z,5.72
2022-10-04T05:26:06.409Z,5.55
2022-10-04T05:28:34.417Z,5.88
2022-10-04T05:31:13.862Z,4.90
2022-10-04T05:33:49.208Z,4.50
2022-10-04T05:36:48.320Z,4.72
2022-10-04T05:39:24.133Z,4.68
2022-10-04T05:41:58.559Z,4.90
2022-10-04T05:44:28.754Z,4.78
2022-10-04T05:46:58.150Z,4.65
2022-10-04T05:49:30.383Z,5.18
2022-10-04T05:52:01.111Z,5.38
2022-10-04T05:54:31.345Z,5.32
2022-10-04T05:57:23.682Z,4.43
2022-10-04T06:00:09.821Z,5.13
2022-10-04T06:02:51.190Z,4.80
2022-10-04T06:05:28.767Z,4.68
2022-10-04T06:07:59.740Z,4.72
2022-10-04T06:10:48.000Z,4.90
2022-10-04T06:13:29.028Z,4.78
2022-10-04T06:15:59.025Z,4.70
2022-10-04T06:18:38.251Z,5.13
2022-10-04T06:21:18.443Z,5.68
2022-10-04T06:23:51.866Z,5.35
2022-10-04T06:26:24.930Z,6.28
2022-10-04T06:28:56.103Z,5.53
2022-10-04T06:31:57.385Z,6.53
2022-10-04T06:34:51.893Z,5.80
2022-10-04T06:37:49.008Z,6.43
2022-10-04T06:40:29.863Z,6.35
2022-10-04T06:43:10.412Z,6.60
2022-10-04T06:45:54.101Z,6.63
2022-10-04T06:48:36.900Z,6.28
2022-10-04T06:51:27.605Z,7.57
2022-10-04T06:54:03.651Z,6.30
2022-10-04T06:56:43.984Z,6.18
2022-10-04T06:59:20.930Z,5.97
2022-10-04T07:01:50.995Z,5.68
2022-10-04T07:04:25.459Z,5.63
2022-10-04T07:07:24.752Z,5.03
2022-10-04T07:09:56.034Z,5.97
2022-10-04T07:12:24.671Z,5.45
2022-10-04T07:14:55.216Z,5.07
2022-10-04T07:17:26.968Z,5.07
2022-10-04T07:19:56.106Z,5.47
2022-10-04T07:22:27.926Z,5.10
2022-10-04T07:25:06.468Z,5.43
2022-10-04T07:27:38.420Z,3.45
2022-10-04T07:30:07.730Z,3.97
2022-10-04T07:32:38.707Z,4.53
2022-10-04T07:35:16.779Z,4.32
2022-10-04T07:37:50.039Z,4.07
2022-10-04T07:40:25.235Z,4.95
2022-10-04T07:42:56.424Z,4.30
2022-10-04T07:45:30.022Z,3.97
2022-10-04T07:48:04.924Z,3.40
2022-10-04T07:50:36.523Z,4.50
2022-10-04T07:53:09.667Z,3.87
2022-10-04T07:55:46.836Z,3.97
2022-10-04T07:58:31.653Z,5.22
2022-10-04T08:01:02.112Z,4.95
2022-10-04T08:03:46.582Z,4.18
2022-10-04T08:06:19.069Z,4.35
2022-10-04T08:09:01.859Z,5.45
2022-10-04T08:11:39.727Z,3.92
2022-10-04T08:14:19.751Z,3.75
2022-10-04T08:16:55.589Z,4.30
2022-10-04T08:19:36.110Z,4.03
2022-10-04T08:22:08.634Z,4.90
2022-10-04T08:24:39.435Z,3.25
2022-10-04T08:27:25.640Z,4.43
2022-10-04T08:30:04.639Z,3.25
2022-10-04T08:32:54.716Z,3.90
2022-10-04T08:35:31.163Z,3.80
2022-10-04T08:38:08.310Z,3.97
2022-10-04T08:40:52.301Z,3.85
2022-10-04T08:43:50.983Z,3.70
2022-10-04T08:46:40.310Z,3.97
2022-10-04T08:49:30.205Z,3.75
2022-10-04T08:52:22.758Z,3.75
2022-10-04T08:55:11.779Z,3.60
2022-10-04T08:57:57.328Z,3.60
2022-10-04T09:00:32.549Z,3.67
2022-10-04T09:03:36.778Z,3.65
2022-10-04T09:06:26.488Z,3.90
2022-10-04T09:09:44.575Z,3.78
2022-10-04T09:12:44.334Z,4.88
2022-10-04T09:15:22.594Z,4.50
2022-10-04T09:18:03.506Z,4.18
2022-10-04T09:20:44.634Z,4.22
2022-10-04T09:23:41.643Z,4.65
2022-10-04T09:26:21.721Z,4.43
2022-10-04T09:29:34.214Z,4.05
2022-10-04T09:32:16.297Z,4.22
2022-10-04T09:35:11.109Z,4.05
2022-10-04T09:37:56.209Z,4.25
2022-10-04T09:40:50.920Z,4.10
2022-10-04T09:43:44.135Z,3.47
2022-10-04T09:46:29.360Z,3.78
2022-10-04T09:49:06.769Z,3.50
2022-10-04T09:52:02.251Z,3.40
2022-10-04T09:54:58.356Z,3.45
2022-10-04T09:57:31.648Z,4.03
2022-10-04T10:00:09.736Z,3.55
2022-10-04T10:03:14.773Z,3.58
2022-10-04T10:06:09.976Z,2.50
2022-10-04T10:08:48.383Z,2.40
2022-10-04T10:11:41.058Z,2.28
2022-10-04T10:14:22.613Z,3.45
2022-10-04T10:17:00.994Z,2.55
2022-10-04T10:19:40.640Z,2.20
2022-10-04T10:22:26.832Z,2.40
2022-10-04T10:25:22.302Z,2.60
2022-10-04T10:28:17.037Z,2.90
2022-10-04T10:30:57.827Z,2.72
2022-10-04T10:33:38.452Z,2.88
2022-10-04T10:36:40.781Z,2.05
2022-10-04T10:39:38.431Z,2.38
2022-10-04T10:42:21.003Z,2.55
2022-10-04T10:45:03.175Z,2.08
2022-10-04T10:47:38.564Z,1.77
2022-10-04T10:50:28.451Z,2.08
2022-10-04T10:53:14.204Z,2.35
2022-10-04T10:56:33.065Z,2.58
2022-10-04T10:59:30.075Z,1.98
2022-10-04T11:02:12.861Z,1.90
2022-10-04T11:05:04.408Z,2.00
2022-10-04T11:07:50.320Z,2.72
2022-10-04T11:10:51.938Z,2.30
2022-10-04T11:13:29.285Z,2.97
2022-10-04T11:16:21.317Z,2.85
2022-10-04T11:19:23.469Z,2.10
2022-10-04T11:22:10.530Z,2.10
2022-10-04T11:24:57.280Z,2.63
2022-10-04T11:27:35.285Z,3.08
2022-10-04T11:30:16.810Z,2.42
2022-10-04T11:33:24.551Z,2.07
2022-10-04T11:36:26.259Z,2.45
2022-10-04T11:39:13.145Z,2.08
2022-10-04T11:41:50.263Z,1.80
2022-10-04T11:44:41.072Z,1.85
2022-10-04T11:47:21.822Z,2.72
2022-10-04T11:49:59.051Z,2.80
2022-10-04T11:52:41.623Z,2.83
2022-10-04T11:55:31.249Z,1.60
2022-10-04T11:58:02.114Z,2.20
2022-10-04T12:00:55.821Z,2.22
2022-10-04T12:03:57.448Z,2.20
2022-10-04T12:06:43.314Z,2.08
2022-10-04T12:09:15.803Z,1.73
2022-10-04T12:15:04.442Z,1.95
2022-10-04T12:18:05.205Z,1.60
2022-10-04T12:20:44.408Z,1.70
2022-10-04T12:23:37.931Z,2.22
2022-10-04T12:26:47.765Z,1.70
2022-10-04T12:29:28.895Z,1.92
2022-10-04T12:31:59.302Z,2.38
2022-10-04T12:34:31.867Z,1.88
2022-10-04T12:37:13.970Z,1.88
2022-10-04T12:40:04.679Z,2.05
2022-10-04T12:42:39.613Z,1.52
2022-10-04T12:45:28.996Z,1.35
2022-10-04T12:48:08.972Z,2.22
2022-10-04T12:50:47.741Z,1.92
2022-10-04T12:53:23.836Z,1.92
2022-10-04T12:56:02.420Z,3.45
2022-10-04T12:58:38.544Z,1.70
2022-10-04T13:01:13.251Z,1.60
2022-10-04T13:04:01.168Z,1.80
2022-10-04T13:06:33.570Z,1.60
2022-10-04T13:09:07.785Z,2.33
2022-10-04T13:11:58.935Z,1.70
2022-10-04T13:14:36.912Z,1.65
2022-10-04T13:17:28.681Z,1.52
2022-10-04T13:20:22.440Z,2.05
2022-10-04T13:22:56.837Z,2.10
2022-10-04T13:25:40.398Z,1.55
2022-10-04T13:28:23.165Z,1.50
2022-10-04T13:30:56.870Z,1.40
2022-10-04T13:33:31.508Z,1.67
2022-10-04T13:36:07.119Z,1.20
2022-10-04T13:38:56.748Z,1.20
2022-10-04T13:41:36.634Z,1.70
2022-10-04T13:44:21.421Z,1.77
2022-10-04T13:47:06.359Z,1.65
2022-10-04T13:49:44.888Z,2.03
2022-10-04T13:52:41.235Z,1.85
2022-10-04T13:55:38.392Z,1.58
2022-10-04T13:58:15.705Z,1.55
2022-10-04T14:00:56.967Z,1.58
2022-10-04T14:03:36.155Z,1.58
2022-10-04T14:06:30.448Z,0.98
2022-10-04T14:09:18.487Z,2.08
2022-10-04T14:12:18.176Z,1.42
2022-10-04T14:15:23.858Z,1.73
2022-10-04T14:18:13.029Z,1.83
2022-10-04T14:21:21.735Z,1.42
2022-10-04T14:24:13.967Z,1.77
2022-10-04T14:27:07.333Z,1.80
2022-10-04T14:30:12.740Z,1.30
2022-10-04T14:33:09.110Z,1.33
2022-10-04T14:35:44.505Z,1.25
2022-10-04T14:38:38.841Z,1.15
2022-10-04T14:41:29.953Z,1.30
2022-10-04T14:44:24.472Z,1.58
2022-10-04T14:47:01.785Z,0.90
2022-10-04T14:49:45.569Z,1.20
2022-10-04T14:52:29.980Z,1.17
2022-10-04T14:55:11.659Z,1.42
2022-10-04T14:57:51.748Z,1.67
2022-10-04T15:00:21.486Z,1.42
2022-10-04T15:03:11.271Z,1.20
2022-10-04T15:06:01.035Z,1.40
2022-10-04T15:08:39.723Z,1.60
2022-10-04T15:11:09.048Z,1.02
2022-10-04T15:13:40.886Z,1.55
2022-10-04T15:16:17.811Z,1.08
2022-10-04T15:18:52.109Z,1.23
2022-10-04T15:21:44.829Z,1.17
2022-10-04T15:29:30.854Z,1.35
2022-10-04T15:32:07.295Z,1.15
2022-10-04T15:34:42.239Z,1.20
2022-10-04T15:37:19.527Z,1.35
2022-10-04T15:40:22.144Z,1.40
2022-10-04T15:43:00.602Z,1.10
2022-10-04T15:45:39.033Z,1.50
2022-10-04T15:48:24.183Z,1.33
2022-10-04T15:51:01.476Z,1.55
2022-10-04T15:53:45.762Z,1.40
2022-10-04T15:56:25.294Z,2.22
2022-10-04T15:59:00.336Z,1.30
2022-10-04T16:01:55.209Z,1.58
2022-10-04T16:04:40.730Z,1.60
2022-10-04T16:08:12.610Z,2.05
2022-10-04T16:11:02.666Z,2.05
2022-10-04T16:13:50.515Z,1.48
2022-10-04T16:16:51.107Z,1.70
2022-10-04T16:19:30.178Z,1.35
2022-10-04T16:22:11.197Z,1.85
2022-10-04T16:24:42.211Z,1.25
2022-10-04T16:27:48.470Z,1.95
2022-10-04T16:30:27.527Z,1.55
2022-10-04T16:33:29.418Z,1.85
2022-10-04T16:36:11.579Z,1.45
2022-10-04T16:39:07.735Z,4.20
2022-10-04T16:41:42.258Z,2.15
2022-10-04T16:44:24.154Z,2.55
2022-10-04T16:46:54.987Z,2.08
2022-10-04T16:49:27.650Z,1.83
2022-10-04T16:52:13.652Z,1.85
2022-10-04T16:55:12.211Z,2.00
2022-10-04T16:57:43.415Z,1.95
2022-10-04T17:00:35.915Z,1.85
2022-10-04T17:03:13.816Z,2.00
2022-10-04T17:06:03.711Z,2.40
2022-10-04T17:09:01.947Z,2.85
2022-10-04T17:11:37.919Z,3.30
2022-10-04T17:14:43.502Z,3.50
2022-10-04T17:17:22.197Z,3.65
2022-10-04T17:19:58.305Z,3.97
2022-10-04T17:22:38.353Z,3.20
2022-10-04T17:25:19.825Z,2.90
2022-10-04T17:27:51.415Z,3.38
2022-10-04T17:30:22.717Z,2.63
2022-10-04T17:33:20.191Z,3.40
2022-10-04T17:36:40.320Z,3.72
2022-10-04T17:39:33.362Z,2.63
2022-10-04T17:42:09.929Z,3.28
2022-10-04T17:45:04.057Z,3.65
2022-10-04T17:47:59.595Z,3.22
2022-10-04T17:50:47.986Z,2.97
2022-10-04T17:53:38.507Z,3.30
2022-10-04T17:56:08.780Z,3.00
2022-10-04T17:58:43.980Z,2.88
2022-10-04T18:01:15.277Z,3.00
2022-10-04T18:03:47.754Z,2.83
2022-10-04T18:06:31.896Z,2.80
2022-10-04T18:09:04.659Z,2.95
2022-10-04T18:11:44.099Z,2.70
2022-10-04T18:14:15.680Z,3.08
2022-10-04T18:16:48.403Z,3.40
2022-10-04T18:19:36.295Z,3.08
2022-10-04T18:22:15.210Z,3.17
2022-10-04T18:24:44.136Z,3.20
2022-10-04T18:27:19.590Z,3.28
2022-10-04T18:30:00.678Z,3.38
2022-10-04T18:32:33.281Z,3.10
2022-10-04T18:35:03.726Z,3.45
2022-10-04T18:37:34.901Z,3.53
2022-10-04T18:40:16.245Z,3.15
2022-10-04T18:42:52.284Z,2.85
2022-10-04T18:45:24.145Z,3.40
2022-10-04T18:47:53.134Z,3.40
2022-10-04T18:50:30.555Z,3.70
2022-10-04T18:53:22.748Z,3.22
2022-10-04T18:55:59.375Z,3.42
2022-10-04T18:58:55.971Z,3.13
2022-10-04T19:02:03.394Z,3.63
2022-10-04T19:04:39.856Z,3.28
2022-10-04T19:07:11.348Z,2.92
2022-10-04T19:10:07.331Z,3.80
2022-10-04T19:12:44.693Z,3.78
2022-10-04T19:15:35.072Z,3.58
2022-10-04T19:18:15.171Z,4.60
2022-10-04T19:20:49.602Z,5.40
2022-10-04T19:23:26.823Z,3.90
2022-10-04T19:26:29.936Z,3.85
2022-10-04T19:28:45.979Z,3.80
2022-10-04T19:31:19.948Z,3.83
2022-10-04T19:33:51.464Z,3.33
2022-10-04T19:36:31.568Z,3.40
2022-10-04T19:39:12.515Z,3.40
2022-10-04T19:41:50.977Z,3.03
2022-10-04T19:44:41.608Z,3.72
2022-10-04T19:47:22.347Z,3.25
2022-10-04T19:49:54.659Z,3.20
2022-10-04T19:52:29.377Z,3.22
2022-10-04T19:55:02.380Z,3.00
2022-10-04T19:57:37.999Z,3.70
2022-10-04T20:00:13.550Z,3.58
2022-10-04T20:02:48.205Z,4.10
2022-10-04T20:05:20.238Z,3.72
2022-10-04T20:07:52.907Z,3.90
2022-10-04T20:10:30.094Z,3.60
2022-10-04T20:13:25.283Z,4.03
2022-10-04T20:15:59.983Z,3.97
2022-10-04T20:19:05.753Z,3.40
2022-10-04T20:21:35.948Z,3.80
2022-10-04T20:24:06.690Z,3.53
2022-10-04T20:26:53.682Z,3.30
2022-10-04T20:30:04.473Z,3.53
2022-10-04T20:36:02.717Z,3.35
2022-10-04T20:38:55.405Z,3.63
2022-10-04T20:42:22.927Z,4.15
2022-10-04T20:44:56.288Z,3.22
2022-10-04T20:47:33.834Z,3.40
2022-10-04T20:50:03.259Z,3.90
2022-10-04T20:52:33.046Z,4.10
2022-10-04T20:55:09.106Z,3.97
2022-10-04T20:57:40.670Z,3.33
2022-10-04T21:00:19.579Z,4.25
2022-10-04T21:02:48.263Z,3.50
2022-10-04T21:05:24.091Z,3.85
2022-10-04T21:08:14.079Z,3.60
2022-10-04T21:11:11.599Z,3.50
2022-10-04T21:13:59.504Z,4.30
2022-10-04T21:16:35.700Z,3.10
2022-10-04T21:19:43.521Z,3.88
2022-10-04T21:22:31.732Z,3.80
2022-10-04T21:25:01.242Z,4.28
2022-10-04T21:27:32.616Z,4.55
2022-10-04T21:30:02.113Z,3.92
2022-10-04T21:32:35.390Z,3.60
2022-10-04T21:35:03.824Z,3.08
2022-10-04T21:37:32.220Z,3.42
2022-10-04T21:40:00.231Z,4.07
2022-10-04T21:42:29.789Z,4.22
2022-10-04T21:44:59.414Z,4.00
2022-10-04T21:47:27.599Z,3.90
2022-10-04T21:49:55.941Z,3.58
2022-10-04T21:52:24.016Z,3.70
2022-10-04T21:54:51.963Z,3.80
2022-10-04T21:57:20.000Z,4.07
2022-10-04T21:59:48.428Z,3.78
2022-10-04T22:02:18.264Z,3.92
2022-10-04T22:04:46.699Z,4.05
2022-10-04T22:07:14.814Z,3.90
2022-10-04T22:09:42.842Z,4.45
2022-10-04T22:12:10.846Z,4.65
2022-10-04T22:14:38.893Z,4.57
2022-10-04T22:17:12.749Z,4.32
2022-10-04T22:19:41.991Z,4.07
2022-10-04T22:22:15.071Z,4.13
2022-10-04T22:24:43.630Z,4.43
2022-10-04T22:27:14.320Z,4.35
2022-10-04T22:29:42.365Z,4.22
2022-10-04T22:32:12.818Z,4.32
2022-10-04T22:37:35.270Z,4.05
2022-10-04T22:40:03.640Z,4.55
2022-10-04T22:42:32.742Z,4.28
2022-10-04T22:45:02.644Z,4.20
2022-10-04T22:47:33.896Z,4.47
2022-10-04T22:50:03.303Z,4.25
2022-10-04T22:52:32.557Z,4.25
2022-10-04T22:55:03.099Z,4.50
2022-10-04T22:57:32.017Z,4.47
2022-10-04T23:00:00.201Z,4.28
2022-10-04T23:02:31.189Z,4.95
2022-10-04T23:05:10.753Z,4.60
2022-10-04T23:07:38.875Z,4.50
2022-10-04T23:10:08.057Z,4.43
2022-10-04T23:12:36.235Z,5.20
2022-10-04T23:15:06.408Z,4.40
2022-10-04T23:17:36.896Z,5.22
2022-10-04T23:20:13.862Z,4.80
2022-10-04T23:22:44.788Z,5.35
2022-10-04T23:25:16.975Z,5.10
2022-10-04T23:27:45.797Z,4.80
2022-10-04T23:30:16.820Z,4.20
2022-10-04T23:32:49.824Z,4.53
2022-10-04T23:35:21.925Z,4.70
2022-10-04T23:37:50.661Z,4.82
2022-10-04T23:40:20.600Z,4.88
2022-10-04T23:42:50.347Z,4.70
2022-10-04T23:45:21.414Z,4.47
2022-10-04T23:47:51.281Z,4.53
2022-10-04T23:50:23.874Z,5.07
2022-10-04T23:52:53.720Z,5.10
2022-10-04T23:55:24.036Z,5.22
2022-10-04T23:57:52.454Z,4.47
